createdAt,value
2019-01-16T00:00:51.552Z,90.40
2019-01-16T00:03:27.262Z,90.00
2019-01-16T00:06:27.206Z,88.10
2019-01-16T00:09:12.949Z,87.20
2019-01-16T00:11:55.484Z,86.50
2019-01-16T00:14:37.020Z,87.00
2019-01-16T00:17:30.216Z,86.20
2019-01-16T00:20:06.401Z,85.60
2019-01-16T00:22:46.176Z,84.80
2019-01-16T00:25:30.399Z,84.50
2019-01-16T00:28:16.413Z,84.40
2019-01-16T00:31:06.672Z,84.10
2019-01-16T00:33:44.356Z,83.50
2019-01-16T00:36:37.559Z,83.30
2019-01-16T00:39:25.242Z,83.50
2019-01-16T00:42:24.729Z,83.90
2019-01-16T00:45:18.154Z,84.40
2019-01-16T00:48:06.388Z,84.40
2019-01-16T00:50:56.794Z,84.20
2019-01-16T00:53:44.102Z,84.20
2019-01-16T00:56:37.591Z,84.30
2019-01-16T00:59:28.887Z,84.70
2019-01-16T01:02:13.224Z,85.20
2019-01-16T01:05:07.080Z,87.30
2019-01-16T01:07:52.810Z,87.60
2019-01-16T01:10:34.774Z,86.00
2019-01-16T01:13:16.441Z,86.00
2019-01-16T01:15:53.557Z,85.70
2019-01-16T01:18:41.241Z,85.50
2019-01-16T01:21:23.970Z,85.60
2019-01-16T01:24:09.908Z,85.30
2019-01-16T01:26:59.438Z,85.60
2019-01-16T01:29:35.549Z,85.80
2019-01-16T01:32:12.680Z,86.00
2019-01-16T01:34:53.445Z,86.10
2019-01-16T01:37:50.081Z,86.50
2019-01-16T01:40:32.597Z,86.40
2019-01-16T01:43:13.864Z,86.70
2019-01-16T01:46:06.015Z,87.30
2019-01-16T01:48:45.333Z,87.40
2019-01-16T01:51:31.345Z,86.60
2019-01-16T01:54:18.376Z,87.10
2019-01-16T01:57:14.615Z,87.30
2019-01-16T01:59:59.240Z,88.20
2019-01-16T02:02:51.893Z,88.70
2019-01-16T02:05:37.864Z,87.30
2019-01-16T02:08:28.166Z,87.10
2019-01-16T02:11:17.847Z,86.70
2019-01-16T02:13:56.531Z,86.40
2019-01-16T02:16:55.998Z,86.60
2019-01-16T02:19:35.372Z,87.40
2019-01-16T02:22:21.993Z,88.40
2019-01-16T02:25:14.312Z,88.90
2019-01-16T02:28:06.661Z,88.20
2019-01-16T02:30:52.648Z,87.10
2019-01-16T02:33:49.176Z,87.30
2019-01-16T02:36:23.896Z,87.20
2019-01-16T02:39:09.362Z,87.20
2019-01-16T02:41:52.305Z,86.90
2019-01-16T02:44:27.718Z,87.30
2019-01-16T02:47:11.280Z,87.50
2019-01-16T02:49:47.248Z,87.90
2019-01-16T02:52:43.525Z,87.30
2019-01-16T02:55:48.893Z,87.70
2019-01-16T02:58:25.872Z,88.10
2019-01-16T03:01:12.960Z,87.30
2019-01-16T03:04:04.498Z,86.80
2019-01-16T03:06:56.796Z,87.20
2019-01-16T03:09:42.512Z,87.40
2019-01-16T03:12:44.962Z,87.80
2019-01-16T03:15:22.289Z,87.70
2019-01-16T03:17:58.977Z,88.10
2019-01-16T03:20:45.037Z,88.30
2019-01-16T03:23:25.409Z,88.00
2019-01-16T03:26:05.034Z,88.30
2019-01-16T03:28:42.428Z,88.20
2019-01-16T03:31:38.469Z,88.30
2019-01-16T03:34:23.528Z,88.50
2019-01-16T03:37:19.556Z,88.60
2019-01-16T03:40:25.106Z,88.50
2019-01-16T03:43:12.752Z,88.10
2019-01-16T03:45:56.342Z,88.30
2019-01-16T03:48:43.412Z,88.50
2019-01-16T03:51:42.914Z,88.20
2019-01-16T03:54:23.329Z,88.40
2019-01-16T03:57:00.822Z,89.10
2019-01-16T03:59:53.647Z,89.40
2019-01-16T04:02:39.472Z,89.30
2019-01-16T04:05:21.326Z,89.70
2019-01-16T04:08:26.839Z,89.90
2019-01-16T04:11:12.260Z,90.10
2019-01-16T04:14:17.396Z,90.30
2019-01-16T04:16:56.608Z,90.60
2019-01-16T04:19:52.369Z,90.70
2019-01-16T04:22:39.485Z,90.90
2019-01-16T04:25:25.781Z,91.20
2019-01-16T04:28:11.761Z,91.80
2019-01-16T04:31:14.201Z,91.90
2019-01-16T04:34:00.119Z,92.60
2019-01-16T04:36:53.318Z,93.30
2019-01-16T04:39:38.985Z,93.60
2019-01-16T04:42:15.961Z,93.70
2019-01-16T04:44:53.045Z,93.70
2019-01-16T04:47:43.778Z,93.50
2019-01-16T04:50:21.971Z,93.70
2019-01-16T04:53:05.776Z,93.90
2019-01-16T04:55:51.117Z,94.30
2019-01-16T04:58:36.837Z,94.40
2019-01-16T05:01:23.952Z,94.50
2019-01-16T05:04:03.305Z,94.90
2019-01-16T05:06:48.816Z,95.10
2019-01-16T05:09:27.793Z,95.30
2019-01-16T05:12:15.187Z,95.60
2019-01-16T05:14:52.351Z,95.60
2019-01-16T05:17:45.661Z,95.80
2019-01-16T05:20:31.477Z,95.80
2019-01-16T05:23:05.662Z,96.40
2019-01-16T05:25:51.216Z,96.60
2019-01-16T05:28:30.863Z,96.80
2019-01-16T05:31:30.402Z,96.70
2019-01-16T05:34:05.406Z,96.70
2019-01-16T05:37:10.696Z,97.00
2019-01-16T05:40:16.013Z,97.00
2019-01-16T05:42:55.840Z,97.10
2019-01-16T05:45:46.478Z,97.20
2019-01-16T05:48:32.160Z,97.50
2019-01-16T05:51:18.187Z,98.10
2019-01-16T05:54:08.488Z,97.70
2019-01-16T05:57:08.004Z,97.60
2019-01-16T05:59:46.824Z,97.70
2019-01-16T06:02:38.065Z,97.80
2019-01-16T06:05:34.806Z,97.80
2019-01-16T06:08:20.865Z,97.90
2019-01-16T06:11:07.509Z,97.80
2019-01-16T06:14:07.068Z,97.80
2019-01-16T06:16:54.621Z,98.00
2019-01-16T06:19:40.510Z,98.10
2019-01-16T06:22:19.965Z,98.20
2019-01-16T06:24:58.354Z,98.10
2019-01-16T06:27:45.405Z,98.30
2019-01-16T06:30:22.968Z,98.30
2019-01-16T06:33:18.835Z,98.20
2019-01-16T06:36:04.305Z,98.40
2019-01-16T06:38:50.245Z,99.00
2019-01-16T06:41:42.656Z,98.60
2019-01-16T06:44:28.826Z,98.60
2019-01-16T06:47:06.140Z,98.50
2019-01-16T06:50:01.761Z,98.50
2019-01-16T06:52:37.622Z,98.60
2019-01-16T06:55:23.597Z,98.80
2019-01-16T06:58:02.118Z,98.80
2019-01-16T07:00:52.317Z,99.00
2019-01-16T07:03:31.924Z,99.10
2019-01-16T07:06:25.350Z,99.10
2019-01-16T07:09:12.393Z,99.20
2019-01-16T07:11:59.950Z,99.50
2019-01-16T07:15:00.251Z,99.30
2019-01-16T07:17:44.605Z,99.40
2019-01-16T07:20:37.496Z,99.20
2019-01-16T07:23:33.588Z,99.50
2019-01-16T07:26:14.664Z,99.90
2019-01-16T07:28:53.365Z,99.90
2019-01-16T07:31:42.025Z,99.90
2019-01-16T07:34:16.750Z,99.90
2019-01-16T07:37:07.760Z,99.90
2019-01-16T07:39:53.776Z,99.90
2019-01-16T07:42:53.316Z,99.90
2019-01-16T07:45:38.652Z,99.90
2019-01-16T07:48:24.656Z,99.90
2019-01-16T07:51:23.857Z,99.90
2019-01-16T07:54:07.875Z,99.90
2019-01-16T07:56:45.661Z,99.90
2019-01-16T07:59:36.353Z,99.90
2019-01-16T08:02:17.968Z,99.90
2019-01-16T08:05:03.721Z,99.90
2019-01-16T08:07:40.208Z,99.90
2019-01-16T08:10:20.364Z,99.90
2019-01-16T08:13:13.278Z,99.90
2019-01-16T08:16:04.596Z,99.90
2019-01-16T08:18:50.521Z,99.90
2019-01-16T08:21:36.602Z,99.90
2019-01-16T08:24:15.160Z,99.90
2019-01-16T08:27:08.568Z,99.90
2019-01-16T08:29:54.748Z,99.90
2019-01-16T08:32:49.761Z,99.90
2019-01-16T08:35:41.061Z,99.90
2019-01-16T08:38:36.280Z,99.90
2019-01-16T08:41:22.304Z,99.90
2019-01-16T08:44:13.860Z,99.90
2019-01-16T08:46:51.276Z,99.90
2019-01-16T08:49:46.623Z,97.20
2019-01-16T08:52:31.742Z,96.90
2019-01-16T08:55:31.051Z,94.20
2019-01-16T08:58:15.822Z,92.40
2019-01-16T09:00:58.644Z,90.40
2019-01-16T09:03:44.232Z,85.90
2019-01-16T09:06:30.693Z,81.20
2019-01-16T09:09:12.202Z,78.10
2019-01-16T09:11:50.183Z,77.90
2019-01-16T09:14:35.839Z,78.30
2019-01-16T09:17:21.868Z,80.10
2019-01-16T09:20:24.344Z,81.30
2019-01-16T09:23:04.939Z,82.60
2019-01-16T09:25:50.632Z,84.70
2019-01-16T09:28:46.824Z,85.80
2019-01-16T09:31:48.954Z,86.60
2019-01-16T09:34:26.676Z,86.40
2019-01-16T09:37:31.856Z,84.80
2019-01-16T09:40:18.420Z,81.30
2019-01-16T09:43:00.400Z,77.80
2019-01-16T09:45:46.063Z,76.00
2019-01-16T09:48:32.192Z,75.30
2019-01-16T09:51:19.257Z,73.90
2019-01-16T09:54:05.020Z,73.30
2019-01-16T09:56:51.111Z,72.70
2019-01-16T09:59:42.386Z,71.80
2019-01-16T10:02:28.381Z,69.80
2019-01-16T10:05:27.588Z,69.40
2019-01-16T10:08:05.972Z,68.50
2019-01-16T10:10:52.030Z,67.50
2019-01-16T10:13:33.045Z,66.60
2019-01-16T10:16:19.005Z,65.80
2019-01-16T10:19:12.192Z,65.50
2019-01-16T10:22:14.346Z,65.90
2019-01-16T10:25:01.401Z,65.20
2019-01-16T10:27:42.140Z,64.00
2019-01-16T10:30:22.708Z,63.50
2019-01-16T10:32:59.152Z,63.90
2019-01-16T10:35:46.215Z,63.40
2019-01-16T10:38:32.452Z,63.50
2019-01-16T10:41:38.133Z,64.10
2019-01-16T10:44:26.492Z,64.50
2019-01-16T10:47:12.460Z,64.30
2019-01-16T10:49:58.565Z,65.20
2019-01-16T10:52:47.502Z,65.90
2019-01-16T10:55:33.510Z,65.40
2019-01-16T10:58:20.569Z,66.00
2019-01-16T11:01:00.476Z,65.10
2019-01-16T11:03:47.588Z,64.40
2019-01-16T11:06:27.860Z,64.00
2019-01-16T11:09:14.920Z,62.20
2019-01-16T11:12:05.080Z,62.20
2019-01-16T11:14:48.470Z,61.10
2019-01-16T11:17:34.541Z,62.60
2019-01-16T11:20:27.762Z,63.20
2019-01-16T11:23:13.807Z,64.70
2019-01-16T11:25:52.582Z,65.40
2019-01-16T11:28:35.423Z,64.50
2019-01-16T11:31:31.832Z,63.40
2019-01-16T11:34:16.949Z,63.60
2019-01-16T11:37:03.063Z,63.00
2019-01-16T11:39:49.136Z,63.00
2019-01-16T11:42:35.243Z,61.10
2019-01-16T11:45:22.644Z,61.20
2019-01-16T11:48:09.703Z,61.30
2019-01-16T11:50:50.112Z,59.80
2019-01-16T11:53:43.555Z,59.80
2019-01-16T11:56:30.808Z,60.10
2019-01-16T11:59:14.832Z,60.10
2019-01-16T12:02:00.180Z,60.10
2019-01-16T12:04:49.072Z,60.60
2019-01-16T12:07:48.210Z,61.80
2019-01-16T12:10:35.821Z,62.20
2019-01-16T12:13:25.768Z,62.90
2019-01-16T12:16:18.924Z,63.10
2019-01-16T12:19:21.026Z,61.70
2019-01-16T12:22:10.961Z,61.30
2019-01-16T12:25:13.176Z,60.60
2019-01-16T12:27:59.788Z,61.90
2019-01-16T12:31:05.090Z,61.10
2019-01-16T12:33:50.818Z,61.10
2019-01-16T12:36:31.336Z,60.60
2019-01-16T12:39:14.860Z,60.80
2019-01-16T12:42:08.073Z,60.90
2019-01-16T12:45:00.488Z,61.00
2019-01-16T12:47:46.459Z,61.20
2019-01-16T12:50:32.638Z,61.40
2019-01-16T12:53:16.908Z,62.20
2019-01-16T12:55:56.693Z,62.00
2019-01-16T12:58:42.460Z,62.10
2019-01-16T13:01:28.480Z,62.10
2019-01-16T13:04:08.383Z,62.50
2019-01-16T13:06:55.421Z,62.50
2019-01-16T13:09:54.675Z,62.90
2019-01-16T13:12:46.717Z,63.20
2019-01-16T13:15:47.080Z,63.40
2019-01-16T13:18:26.681Z,63.10
2019-01-16T13:21:04.168Z,63.10
2019-01-16T13:23:51.257Z,63.50
2019-01-16T13:26:37.396Z,63.40
2019-01-16T13:29:23.439Z,63.90
2019-01-16T13:32:13.817Z,64.60
2019-01-16T13:35:01.812Z,64.60
2019-01-16T13:37:58.047Z,65.20
2019-01-16T13:41:03.599Z,65.30
2019-01-16T13:43:49.417Z,65.80
2019-01-16T13:46:30.409Z,66.30
2019-01-16T13:49:07.238Z,66.90
2019-01-16T13:51:47.437Z,67.80
2019-01-16T13:54:33.312Z,67.10
2019-01-16T13:57:26.624Z,67.30
2019-01-16T14:00:03.593Z,67.50
2019-01-16T14:03:02.829Z,68.30
2019-01-16T14:05:37.928Z,68.50
2019-01-16T14:08:15.000Z,68.10
2019-01-16T14:11:08.576Z,68.60
2019-01-16T14:13:52.477Z,68.30
2019-01-16T14:16:53.934Z,68.80
2019-01-16T14:19:31.991Z,68.20
2019-01-16T14:22:14.460Z,68.70
2019-01-16T14:25:04.364Z,69.10
2019-01-16T14:28:06.960Z,69.30
2019-01-16T14:30:46.779Z,68.90
2019-01-16T14:33:35.544Z,68.80
2019-01-16T14:36:20.949Z,69.60
2019-01-16T14:39:11.343Z,70.10
2019-01-16T14:41:57.297Z,70.70
2019-01-16T14:44:37.228Z,71.20
2019-01-16T14:47:27.215Z,71.30
2019-01-16T14:50:18.060Z,71.70
2019-01-16T14:52:58.825Z,72.40
2019-01-16T14:55:46.168Z,73.20
2019-01-16T14:58:29.020Z,74.10
2019-01-16T15:01:15.034Z,74.70
2019-01-16T15:03:56.900Z,75.40
2019-01-16T15:06:43.939Z,76.20
2019-01-16T15:09:29.290Z,78.30
2019-01-16T15:12:19.526Z,79.70
2019-01-16T15:15:17.596Z,81.50
2019-01-16T15:18:19.821Z,82.50
2019-01-16T15:21:12.687Z,84.10
2019-01-16T15:23:55.703Z,85.00
2019-01-16T15:26:37.868Z,85.80
2019-01-16T15:29:20.196Z,86.60
2019-01-16T15:32:07.451Z,87.50
2019-01-16T15:34:49.688Z,88.20
2019-01-16T15:37:39.842Z,88.70
2019-01-16T15:40:23.648Z,89.20
2019-01-16T15:43:14.139Z,89.90
2019-01-16T15:46:04.264Z,90.20
2019-01-16T15:49:00.732Z,90.60
2019-01-16T15:51:55.388Z,90.90
2019-01-16T15:54:42.494Z,91.10
2019-01-16T15:57:26.268Z,91.30
2019-01-16T16:00:03.347Z,92.10
2019-01-16T16:03:06.172Z,92.10
2019-01-16T16:06:08.376Z,92.20
2019-01-16T16:08:55.520Z,92.40
2019-01-16T16:11:41.731Z,92.80
2019-01-16T16:14:32.060Z,93.00
2019-01-16T16:17:18.276Z,93.20
2019-01-16T16:20:09.754Z,93.60
2019-01-16T16:23:03.035Z,93.80
2019-01-16T16:26:02.903Z,94.00
2019-01-16T16:28:48.510Z,94.30
2019-01-16T16:31:48.026Z,94.60
2019-01-16T16:34:26.530Z,94.80
2019-01-16T16:37:12.220Z,95.00
2019-01-16T16:40:08.457Z,95.10
2019-01-16T16:42:52.783Z,95.40
2019-01-16T16:45:38.781Z,95.50
2019-01-16T16:48:29.137Z,95.80
2019-01-16T16:51:31.640Z,95.80
2019-01-16T16:54:21.739Z,96.00
2019-01-16T16:57:17.656Z,96.40
2019-01-16T17:00:03.466Z,96.50
2019-01-16T17:02:49.665Z,96.60
2019-01-16T17:05:35.756Z,96.90
2019-01-16T17:08:35.164Z,96.90
2019-01-16T17:11:20.572Z,96.90
2019-01-16T17:14:17.015Z,97.20
2019-01-16T17:16:55.073Z,97.10
2019-01-16T17:19:32.021Z,97.30
2019-01-16T17:22:18.132Z,97.30
2019-01-16T17:25:04.156Z,97.30
2019-01-16T17:28:03.595Z,97.70
2019-01-16T17:30:45.164Z,97.80
2019-01-16T17:33:34.979Z,98.30
2019-01-16T17:36:28.424Z,98.20
2019-01-16T17:39:18.327Z,98.20
2019-01-16T17:42:04.517Z,98.20
2019-01-16T17:44:58.999Z,98.50
2019-01-16T17:47:58.685Z,98.50
2019-01-16T17:50:36.177Z,98.50
2019-01-16T17:53:35.584Z,98.50
2019-01-16T17:56:25.763Z,98.30
2019-01-16T17:59:19.024Z,98.20
2019-01-16T18:02:24.464Z,98.30
2019-01-16T18:05:13.275Z,98.50
2019-01-16T18:07:59.472Z,98.60
2019-01-16T18:10:55.882Z,98.80
2019-01-16T18:13:31.768Z,98.80
2019-01-16T18:16:18.220Z,98.60
2019-01-16T18:19:04.339Z,98.60
2019-01-16T18:21:52.080Z,98.40
2019-01-16T18:24:45.288Z,98.50
2019-01-16T18:27:35.419Z,98.50
2019-01-16T18:30:18.612Z,98.50
2019-01-16T18:33:04.352Z,98.60
2019-01-16T18:35:43.691Z,98.60
2019-01-16T18:38:30.980Z,98.50
2019-01-16T18:41:27.494Z,98.60
2019-01-16T18:44:21.012Z,98.60
2019-01-16T18:47:01.151Z,98.70
2019-01-16T18:49:37.645Z,98.60
2019-01-16T18:52:27.587Z,98.60
2019-01-16T18:55:29.728Z,98.70
2019-01-16T18:58:12.618Z,98.80
2019-01-16T19:00:58.604Z,98.70
2019-01-16T19:03:48.947Z,98.70
2019-01-16T19:06:31.905Z,98.70
2019-01-16T19:09:22.065Z,98.80
2019-01-16T19:12:21.469Z,98.70
2019-01-16T19:15:11.061Z,98.70
2019-01-16T19:17:49.732Z,98.80
2019-01-16T19:20:43.132Z,99.00
2019-01-16T19:23:29.028Z,99.10
2019-01-16T19:26:22.330Z,99.20
2019-01-16T19:29:17.598Z,99.30
2019-01-16T19:32:10.873Z,99.50
2019-01-16T19:34:46.105Z,99.50
2019-01-16T19:37:30.161Z,99.50
2019-01-16T19:40:20.023Z,99.60
2019-01-16T19:43:09.928Z,99.70
2019-01-16T19:45:56.023Z,99.70
2019-01-16T19:48:43.732Z,99.70
2019-01-16T19:51:31.276Z,99.70
2019-01-16T19:54:27.918Z,99.70
2019-01-16T19:57:15.104Z,99.90
2019-01-16T19:59:51.376Z,99.90
2019-01-16T20:02:38.292Z,99.90
2019-01-16T20:05:40.902Z,99.90
2019-01-16T20:08:24.252Z,99.70
2019-01-16T20:11:10.060Z,99.60
2019-01-16T20:14:00.232Z,99.60
2019-01-16T20:16:41.999Z,99.50
2019-01-16T20:19:35.431Z,99.60
2019-01-16T20:22:35.294Z,99.70
2019-01-16T20:25:25.302Z,99.60
2019-01-16T20:28:11.013Z,99.70
2019-01-16T20:31:07.988Z,99.70
2019-01-16T20:33:56.026Z,99.90
2019-01-16T20:36:41.084Z,99.90
2019-01-16T20:39:26.947Z,99.90
2019-01-16T20:42:11.032Z,99.90
2019-01-16T20:45:04.123Z,99.90
2019-01-16T20:47:51.368Z,99.90
2019-01-16T20:50:37.169Z,99.90
2019-01-16T20:53:21.716Z,99.90
2019-01-16T20:56:07.513Z,99.90
2019-01-16T20:58:44.708Z,99.90
2019-01-16T21:01:34.581Z,99.90
2019-01-16T21:04:36.829Z,99.90
2019-01-16T21:07:16.908Z,99.90
2019-01-16T21:09:59.580Z,99.90
2019-01-16T21:12:49.671Z,99.90
2019-01-16T21:15:36.822Z,99.90
2019-01-16T21:18:39.276Z,99.90
2019-01-16T21:21:27.408Z,99.90
2019-01-16T21:24:13.664Z,99.80
2019-01-16T21:27:04.801Z,99.80
2019-01-16T21:29:51.941Z,99.90
2019-01-16T21:32:38.600Z,99.90
2019-01-16T21:35:36.129Z,99.90
2019-01-16T21:38:26.459Z,99.90
2019-01-16T21:41:22.605Z,99.90
2019-01-16T21:44:08.810Z,99.90
2019-01-16T21:46:54.632Z,99.90
2019-01-16T21:49:50.843Z,99.90
2019-01-16T21:52:34.120Z,99.90
2019-01-16T21:55:21.153Z,99.90
2019-01-16T21:58:20.091Z,99.90
2019-01-16T22:01:10.024Z,99.90
2019-01-16T22:04:12.239Z,99.90
2019-01-16T22:06:52.556Z,99.90
2019-01-16T22:09:42.618Z,99.90
2019-01-16T22:12:28.380Z,99.90
2019-01-16T22:15:14.510Z,99.90
2019-01-16T22:18:11.621Z,99.90
2019-01-16T22:20:57.616Z,99.90
2019-01-16T22:23:43.969Z,99.90
2019-01-16T22:26:37.272Z,99.90
2019-01-16T22:29:31.413Z,99.90
2019-01-16T22:32:07.130Z,99.90
2019-01-16T22:34:57.092Z,99.90
2019-01-16T22:37:56.372Z,99.90
2019-01-16T22:40:39.909Z,99.90
2019-01-16T22:43:35.068Z,99.90
2019-01-16T22:46:16.004Z,99.90
2019-01-16T22:48:59.456Z,99.90
2019-01-16T22:51:49.334Z,99.90
2019-01-16T22:54:40.263Z,99.90
2019-01-16T22:57:16.484Z,99.90
2019-01-16T23:00:05.352Z,99.90
2019-01-16T23:02:52.571Z,99.90
2019-01-16T23:05:51.836Z,99.90
2019-01-16T23:08:38.944Z,99.90
2019-01-16T23:11:29.186Z,99.90
2019-01-16T23:14:07.990Z,99.90
2019-01-16T23:16:55.024Z,99.90
2019-01-16T23:19:32.068Z,99.90
2019-01-16T23:22:16.961Z,99.90
2019-01-16T23:25:01.197Z,99.90
2019-01-16T23:27:47.283Z,99.90
2019-01-16T23:30:34.301Z,99.90
2019-01-16T23:33:20.312Z,99.90
2019-01-16T23:36:07.452Z,99.90
2019-01-16T23:39:06.681Z,99.90
2019-01-16T23:41:58.918Z,99.90
2019-01-16T23:44:55.748Z,99.90
2019-01-16T23:47:48.952Z,99.90
2019-01-16T23:50:39.129Z,99.90
2019-01-16T23:53:32.073Z,99.90
2019-01-16T23:56:17.696Z,99.90
2019-01-16T23:59:05.997Z,99.90
